Time;durP1;ratioP1;P1;durP2;ratioP2;P2;SDS_P1;SDS_P2;PMS_P1;PMS_P2;Temp;Humidity;BMP_temperature;BMP_pressure;BME280_temperature;BME280_humidity;BME280_pressure;Samples;Min_cycle;Max_cycle;Signal;HPM_P1;HPM_P2
2021/03/26 00:00:40;;;;;;;16.88;11.63;;;;;;;11.34;53.48;100487.03;5037716;28;20031;-66
2021/03/26 00:03:07;;;;;;;16.60;12.10;;;;;;;11.30;53.71;100485.94;5024830;28;20036;-64
2021/03/26 00:05:34;;;;;;;18.27;12.02;;;;;;;11.27;53.80;100483.78;5031030;28;20231;-65
2021/03/26 00:08:00;;;;;;;15.82;11.77;;;;;;;11.22;53.73;100477.53;5043935;28;20036;-63
2021/03/26 00:10:25;;;;;;;18.55;11.68;;;;;;;11.15;53.98;100472.38;5040759;28;20026;-64
2021/03/26 00:12:52;;;;;;;16.92;12.23;;;;;;;11.20;53.97;100480.53;5052784;28;20032;-64
2021/03/26 00:15:18;;;;;;;17.17;11.60;;;;;;;11.16;54.12;100469.34;5034866;28;20031;-65
2021/03/26 00:17:43;;;;;;;18.20;12.82;;;;;;;11.13;54.22;100469.94;5048944;28;20039;-64
2021/03/26 00:20:10;;;;;;;20.88;12.63;;;;;;;11.12;54.00;100467.47;5044328;28;20006;-64
2021/03/26 00:22:35;;;;;;;20.08;12.32;;;;;;;11.08;54.25;100453.56;5034668;28;20044;-64
2021/03/26 00:25:01;;;;;;;19.27;12.63;;;;;;;11.10;54.08;100461.50;5055070;28;20107;-65
2021/03/26 00:27:26;;;;;;;16.65;13.10;;;;;;;11.07;54.48;100460.16;5039407;28;20104;-63
2021/03/26 00:29:51;;;;;;;19.35;13.35;;;;;;;11.07;54.48;100457.41;5056461;28;20021;-64
2021/03/26 00:32:18;;;;;;;19.52;13.15;;;;;;;11.03;54.36;100448.94;5050437;28;20025;-64
2021/03/26 00:34:43;;;;;;;18.63;13.20;;;;;;;11.00;54.41;100455.00;5048159;28;20021;-64
2021/03/26 00:37:09;;;;;;;17.08;12.30;;;;;;;10.91;54.43;100442.22;5022643;28;20030;-64
2021/03/26 00:39:35;;;;;;;18.25;13.15;;;;;;;10.95;54.38;100448.72;5056503;28;20416;-63
2021/03/26 00:42:00;;;;;;;18.85;12.52;;;;;;;10.91;54.79;100445.75;5028737;28;20026;-64
2021/03/26 00:44:25;;;;;;;21.52;12.48;;;;;;;10.90;54.56;100437.84;5033159;28;20021;-64
2021/03/26 00:46:51;;;;;;;17.75;12.40;;;;;;;10.88;54.90;100434.59;5045018;28;20489;-65
2021/03/26 00:49:16;;;;;;;17.08;12.70;;;;;;;10.85;54.58;100435.97;5030969;28;20108;-65
2021/03/26 00:51:42;;;;;;;18.70;12.82;;;;;;;10.83;54.84;100438.94;5033375;28;20662;-64
2021/03/26 00:54:08;;;;;;;20.48;13.05;;;;;;;10.82;54.81;100429.16;5033872;28;20429;-64
2021/03/26 00:56:34;;;;;;;19.92;13.23;;;;;;;10.79;54.89;100421.53;5024014;28;20363;-65
2021/03/26 00:58:59;;;;;;;18.73;13.70;;;;;;;10.82;54.97;100423.72;5056070;28;20056;-63
2021/03/26 01:01:25;;;;;;;21.42;13.70;;;;;;;10.76;55.02;100424.81;5045468;28;20985;-65
2021/03/26 01:03:51;;;;;;;21.77;13.30;;;;;;;10.53;54.88;100378.00;5026208;28;20061;-64
2021/03/26 01:06:16;;;;;;;20.85;13.63;;;;;;;10.76;55.05;100413.88;5034729;28;20525;-65
2021/03/26 01:08:42;;;;;;;16.27;12.52;;;;;;;10.74;55.19;100421.56;5042787;28;20550;-64
2021/03/26 01:11:20;;;;;;;16.70;12.27;;;;;;;10.70;55.25;100412.28;5039663;28;20028;-63
2021/03/26 01:13:47;;;;;;;17.08;13.18;;;;;;;10.63;55.40;100404.41;5037367;28;20071;-65
2021/03/26 01:16:15;;;;;;;22.55;14.52;;;;;;;10.41;55.34;100361.16;5048526;28;20104;-64
2021/03/26 01:18:43;;;;;;;18.58;12.77;;;;;;;10.57;55.55;100402.00;5055831;28;20032;-64
2021/03/26 01:21:13;;;;;;;15.73;12.65;;;;;;;10.45;55.78;100378.56;5047982;28;20021;-63
2021/03/26 01:23:38;;;;;;;20.52;13.52;;;;;;;10.54;55.47;100395.16;5043963;28;20187;-64
2021/03/26 01:26:05;;;;;;;17.58;12.85;;;;;;;10.52;55.52;100394.63;5041889;28;20020;-64
2021/03/26 01:28:31;;;;;;;18.48;12.73;;;;;;;10.49;55.68;100389.72;5036654;28;20033;-63
2021/03/26 01:30:58;;;;;;;18.83;13.27;;;;;;;10.49;55.47;100396.03;5033566;28;20110;-63
2021/03/26 01:33:23;;;;;;;17.30;12.98;;;;;;;10.46;55.60;100391.13;5048470;28;20047;-64
2021/03/26 01:35:49;;;;;;;19.30;12.93;;;;;;;10.46;55.84;100401.19;5034720;28;20017;-65
2021/03/26 01:38:15;;;;;;;16.55;11.88;;;;;;;10.28;55.86;100380.78;5059976;28;20380;-63
2021/03/26 01:40:48;;;;;;;16.38;12.27;;;;;;;10.39;55.84;100405.03;5056503;28;20405;-64
2021/03/26 01:43:18;;;;;;;16.70;12.32;;;;;;;10.26;55.97;100385.66;5046488;28;20063;-64
2021/03/26 01:45:44;;;;;;;17.67;12.55;;;;;;;10.33;55.90;100395.22;5052777;28;20024;-64
2021/03/26 01:48:12;;;;;;;19.13;12.55;;;;;;;10.32;55.92;100390.03;5040078;28;20038;-63
2021/03/26 01:50:40;;;;;;;20.33;12.57;;;;;;;10.13;55.87;100366.09;5043813;28;20018;-64
2021/03/26 01:53:07;;;;;;;16.85;12.02;;;;;;;10.17;55.89;100367.16;5041729;28;20056;-64
2021/03/26 01:55:42;;;;;;;20.60;12.63;;;;;;;10.23;55.79;100376.97;5032266;28;20039;-64
2021/03/26 01:58:11;;;;;;;13.63;11.38;;;;;;;10.22;55.84;100383.53;5053567;28;20118;-64
2021/03/26 02:00:46;;;;;;;16.98;12.32;;;;;;;10.21;56.11;100375.59;5051572;28;20053;-63
2021/03/26 02:03:17;;;;;;;19.08;13.38;;;;;;;10.17;55.98;100380.00;5047153;28;20025;-64
2021/03/26 02:05:43;;;;;;;18.45;13.02;;;;;;;10.14;55.91;100389.53;5053415;28;20440;-64
2021/03/26 02:08:13;;;;;;;19.63;13.23;;;;;;;10.12;56.14;100380.81;5031995;28;20058;-63
2021/03/26 02:10:39;;;;;;;20.40;12.95;;;;;;;10.08;56.24;100368.84;5045033;28;20466;-64
2021/03/26 02:13:06;;;;;;;18.40;12.23;;;;;;;10.05;55.95;100364.75;5032820;28;20033;-64
2021/03/26 02:15:43;;;;;;;14.88;12.10;;;;;;;10.04;56.17;100371.28;5037380;28;20366;-65
2021/03/26 02:18:09;;;;;;;16.00;12.13;;;;;;;10.00;56.37;100367.50;5040990;28;20047;-63
2021/03/26 02:20:34;;;;;;;17.27;12.25;;;;;;;9.99;56.11;100363.13;5052353;28;20022;-64
2021/03/26 02:23:27;;;;;;;21.40;12.05;;;;;;;9.97;56.25;100364.50;5044761;28;20028;-63
2021/03/26 02:25:55;;;;;;;16.83;11.73;;;;;;;9.93;56.34;100356.88;5047730;28;20069;-63
2021/03/26 02:28:21;;;;;;;17.92;12.07;;;;;;;9.91;56.42;100359.06;5033889;28;20504;-65
2021/03/26 02:30:51;;;;;;;17.13;12.27;;;;;;;9.90;56.58;100352.00;5043343;28;20522;-65
2021/03/26 02:33:17;;;;;;;20.83;12.93;;;;;;;9.87;56.34;100349.81;5039449;28;20044;-66
2021/03/26 02:36:17;;;;;;;18.70;12.20;;;;;;;9.87;56.39;100344.34;5043423;28;20107;-63
2021/03/26 02:38:55;;;;;;;17.42;12.52;;;;;;;9.86;56.48;100344.66;5011034;28;20422;-64
2021/03/26 02:41:29;;;;;;;18.40;12.10;;;;;;;9.82;56.72;100341.66;5011174;28;20025;-65
2021/03/26 02:44:12;;;;;;;15.95;12.15;;;;;;;9.79;56.50;100342.19;5038944;28;20030;-64
2021/03/26 02:47:01;;;;;;;19.50;12.07;;;;;;;9.77;56.63;100333.47;5033836;28;20033;-63
2021/03/26 02:49:35;;;;;;;18.13;12.23;;;;;;;9.73;56.82;100332.41;5033240;28;20037;-63
2021/03/26 02:52:22;;;;;;;20.08;12.07;;;;;;;9.70;56.99;100325.59;5052064;28;20101;-65
2021/03/26 02:55:25;;;;;;;19.60;11.70;;;;;;;9.71;56.44;100337.31;5042580;28;20018;-65
2021/03/26 02:57:59;;;;;;;21.35;12.65;;;;;;;9.54;56.79;100313.09;5025386;28;20030;-63
2021/03/26 03:00:36;;;;;;;18.45;12.27;;;;;;;9.65;57.03;100322.88;5025143;28;20141;-63
2021/03/26 03:03:03;;;;;;;17.60;12.18;;;;;;;9.64;56.60;100323.16;5028824;28;20026;-66
2021/03/26 03:05:34;;;;;;;14.85;11.45;;;;;;;9.59;56.65;100319.34;5038554;28;20033;-64
2021/03/26 03:08:16;;;;;;;18.38;11.80;;;;;;;9.60;57.01;100329.13;5037269;28;20060;-63
2021/03/26 03:11:02;;;;;;;18.65;12.50;;;;;;;9.58;57.13;100323.16;5041164;28;20514;-64
2021/03/26 03:13:27;;;;;;;19.67;11.93;;;;;;;9.57;56.88;100328.88;5037906;28;20037;-63
2021/03/26 03:16:01;;;;;;;14.77;11.57;;;;;;;9.55;56.80;100326.44;5028225;28;20033;-64
2021/03/26 03:18:35;;;;;;;17.80;12.68;;;;;;;9.54;57.26;100329.44;5036197;28;20033;-64
2021/03/26 03:21:20;;;;;;;16.48;12.07;;;;;;;9.52;56.95;100324.25;5047033;28;20025;-64
2021/03/26 03:23:52;;;;;;;18.08;12.48;;;;;;;9.48;57.01;100317.72;5047958;28;20032;-65
2021/03/26 03:26:26;;;;;;;17.92;12.13;;;;;;;9.47;57.03;100321.53;5055712;28;20029;-64
2021/03/26 03:29:01;;;;;;;17.85;11.70;;;;;;;9.46;56.85;100317.19;5050613;28;20031;-64
2021/03/26 03:31:36;;;;;;;17.70;11.50;;;;;;;9.45;57.04;100312.81;5025370;28;20057;-63
2021/03/26 03:34:33;;;;;;;18.08;12.32;;;;;;;9.43;57.28;100309.53;5040666;28;20125;-65
2021/03/26 03:37:13;;;;;;;;;;;;;;;9.37;57.22;100314.19;5038543;28;20051;-64
2021/03/26 03:39:56;;;;;;;19.27;11.80;;;;;;;9.36;56.96;100314.44;5034991;28;19931;-63
2021/03/26 03:42:32;;;;;;;16.48;11.93;;;;;;;9.32;57.10;100311.47;5034448;28;20064;-64
2021/03/26 03:45:09;;;;;;;19.85;12.18;;;;;;;9.31;57.13;100309.81;5042306;28;20029;-64
2021/03/26 03:47:55;;;;;;;18.38;12.98;;;;;;;9.33;57.74;100315.00;5026504;28;20079;-63
2021/03/26 03:50:43;;;;;;;17.00;12.13;;;;;;;9.32;57.34;100321.53;5033733;28;20032;-64
2021/03/26 03:53:17;;;;;;;21.73;11.95;;;;;;;9.31;57.63;100320.72;5029681;28;20106;-64
2021/03/26 03:55:54;;;;;;;20.80;11.95;;;;;;;9.29;57.76;100326.44;5024525;28;20029;-64
2021/03/26 03:58:30;;;;;;;21.60;11.65;;;;;;;9.28;57.19;100324.00;5036418;28;20121;-64
2021/03/26 04:01:05;;;;;;;17.50;12.45;;;;;;;9.25;57.71;100330.81;5019173;28;20402;-64
2021/03/26 04:03:39;;;;;;;17.00;12.30;;;;;;;9.25;57.29;100333.53;5033314;28;20033;-65
2021/03/26 04:06:33;;;;;;;19.38;11.65;;;;;;;9.08;57.59;100309.28;5050992;28;20029;-64
2021/03/26 04:09:05;;;;;;;20.67;12.05;;;;;;;9.21;57.60;100328.88;4997524;28;20109;-63
2021/03/26 04:11:36;;;;;;;14.85;11.40;;;;;;;9.19;57.66;100334.56;5023221;28;20080;-64
2021/03/26 04:14:11;;;;;;;19.40;11.70;;;;;;;9.16;57.77;100340.59;5025395;28;20033;-66
2021/03/26 04:16:40;;;;;;;14.20;11.38;;;;;;;9.14;57.53;100340.03;5024682;28;20038;-64
2021/03/26 04:19:11;;;;;;;16.90;11.05;;;;;;;9.13;57.68;100347.34;5033074;28;20033;-64
2021/03/26 04:21:39;;;;;;;17.42;11.77;;;;;;;9.10;57.60;100344.34;5028954;28;20036;-63
2021/03/26 04:24:14;;;;;;;18.67;10.90;;;;;;;9.10;57.62;100341.63;5026993;28;20093;-63
2021/03/26 04:26:58;;;;;;;18.00;10.88;;;;;;;9.08;57.40;100333.75;5037735;28;20033;-64
2021/03/26 04:29:31;;;;;;;20.27;12.10;;;;;;;9.07;57.91;100339.47;5036291;28;20032;-64
2021/03/26 04:32:05;;;;;;;16.67;12.02;;;;;;;9.05;57.69;100337.00;5025198;28;20038;-64
2021/03/26 04:34:31;;;;;;;17.00;12.05;;;;;;;9.02;57.73;100326.69;5028107;28;20040;-66
2021/03/26 04:37:25;;;;;;;16.83;12.23;;;;;;;9.02;57.86;100339.44;5033076;28;20052;-63
2021/03/26 04:40:17;;;;;;;17.40;11.25;;;;;;;8.95;57.61;100332.38;5024344;28;20033;-63
2021/03/26 04:43:04;;;;;;;17.25;11.77;;;;;;;8.93;58.11;100320.13;5033169;28;20048;-64
2021/03/26 04:46:09;;;;;;;15.38;11.35;;;;;;;8.90;57.75;100324.22;5040754;28;20021;-64
2021/03/26 04:49:18;;;;;;;19.58;11.55;;;;;;;8.87;57.71;100322.03;4998564;28;20050;-64
2021/03/26 04:51:46;;;;;;;16.40;11.90;;;;;;;8.82;57.80;100332.91;5000121;28;20617;-63
2021/03/26 04:54:37;;;;;;;16.65;11.90;;;;;;;8.74;58.19;100317.13;5014561;28;20029;-64
2021/03/26 04:57:12;;;;;;;16.13;11.35;;;;;;;8.77;57.80;100317.38;5014533;28;20033;-65
2021/03/26 04:59:45;;;;;;;19.60;11.70;;;;;;;8.75;58.05;100316.03;5012396;28;20028;-63
2021/03/26 05:02:14;;;;;;;17.67;11.38;;;;;;;8.43;57.89;100262.66;5015313;28;20044;-64
2021/03/26 05:04:42;;;;;;;17.08;10.80;;;;;;;8.69;58.01;100320.63;5015980;28;20033;-63
2021/03/26 05:07:18;;;;;;;17.58;10.85;;;;;;;8.69;58.03;100325.25;5014133;28;20477;-64
2021/03/26 05:09:48;;;;;;;15.18;10.27;;;;;;;8.68;58.17;100312.75;5013072;28;20034;-64
2021/03/26 05:12:22;;;;;;;14.65;11.40;;;;;;;8.66;58.36;100318.44;5015845;28;20029;-64
2021/03/26 05:15:01;;;;;;;16.38;11.43;;;;;;;8.64;57.99;100310.56;5018518;28;20408;-65
2021/03/26 05:17:46;;;;;;;16.67;11.05;;;;;;;8.62;58.38;100314.63;5016156;28;20057;-64
2021/03/26 05:20:18;;;;;;;14.85;11.38;;;;;;;8.58;58.14;100314.34;5021920;28;20092;-63
2021/03/26 05:23:01;;;;;;;18.23;11.93;;;;;;;8.57;58.45;100310.00;5016003;28;20038;-64
2021/03/26 05:25:48;;;;;;;14.98;11.32;;;;;;;8.52;58.60;100301.81;5013499;28;20070;-63
2021/03/26 05:28:37;;;;;;;16.35;11.98;;;;;;;8.53;58.72;100310.81;5013070;28;20033;-64
2021/03/26 05:31:08;;;;;;;18.95;12.15;;;;;;;8.50;58.72;100314.88;5015439;28;20030;-65
2021/03/26 05:33:48;;;;;;;15.07;11.00;;;;;;;8.50;58.55;100301.28;5010781;28;20037;-64
2021/03/26 05:36:31;;;;;;;22.30;11.52;;;;;;;8.50;58.53;100299.38;5006364;28;20559;-63
2021/03/26 05:39:08;;;;;;;17.52;11.15;;;;;;;8.50;58.74;100302.09;5016041;28;20108;-63
2021/03/26 05:41:42;;;;;;;16.42;11.15;;;;;;;8.52;58.70;100298.28;5014402;28;20118;-65
2021/03/26 05:44:29;;;;;;;15.63;11.50;;;;;;;8.53;58.84;100297.22;5011554;28;20034;-64
2021/03/26 05:47:09;;;;;;;16.60;11.98;;;;;;;8.52;58.75;100298.28;5015063;28;20441;-64
2021/03/26 05:49:54;;;;;;;15.27;11.43;;;;;;;8.50;58.63;100293.94;5048400;28;20091;-64
2021/03/26 05:52:50;;;;;;;15.55;11.45;;;;;;;8.52;58.92;100303.72;5025259;28;20069;-64
2021/03/26 05:55:25;;;;;;;15.80;10.40;;;;;;;8.49;58.55;100296.94;5036885;28;20035;-65
2021/03/26 05:58:29;;;;;;;16.57;10.73;;;;;;;8.50;58.74;100302.09;5038459;28;20397;-64
2021/03/26 06:01:31;;;;;;;14.98;11.80;;;;;;;8.50;58.61;100306.72;5036963;28;20333;-64
2021/03/26 06:04:18;;;;;;;15.98;10.95;;;;;;;8.49;58.94;100296.94;5041506;28;20159;-64
2021/03/26 06:07:40;;;;;;;13.38;10.32;;;;;;;8.49;58.94;100291.50;5054410;28;20029;-65
2021/03/26 06:10:23;;;;;;;14.88;10.63;;;;;;;8.30;58.77;100272.13;4962125;28;20090;-64
2021/03/26 06:13:10;;;;;;;18.90;11.25;;;;;;;8.49;59.26;100302.38;4973434;28;20225;-66
2021/03/26 06:15:44;;;;;;;14.02;10.85;;;;;;;8.51;59.05;100297.50;5025625;28;20037;-64
2021/03/26 06:18:34;;;;;;;15.60;11.23;;;;;;;8.52;58.91;100304.53;5029268;28;20029;-64
2021/03/26 06:21:12;;;;;;;17.10;10.52;;;;;;;8.56;58.98;100311.09;5031945;28;20016;-64
2021/03/26 06:24:05;;;;;;;15.18;11.70;;;;;;;8.58;58.93;100306.19;5043461;28;20474;-64
2021/03/26 06:26:57;;;;;;;17.30;11.45;;;;;;;8.60;58.85;100304.00;5030713;28;20371;-65
2021/03/26 06:30:02;;;;;;;20.63;11.88;;;;;;;8.63;59.08;100299.97;5055500;28;20033;-64
2021/03/26 06:32:46;;;;;;;16.83;11.80;;;;;;;8.65;59.06;100290.44;5034503;28;20020;-64
2021/03/26 06:35:38;;;;;;;17.73;11.23;;;;;;;8.72;58.85;100300.25;5023296;28;20036;-66
2021/03/26 06:38:31;;;;;;;18.17;11.05;;;;;;;8.78;58.78;100304.59;5038858;28;20026;-67
2021/03/26 06:41:01;;;;;;;16.30;11.98;;;;;;;8.84;58.81;100309.00;5057917;28;20108;-66
2021/03/26 06:44:03;;;;;;;17.00;11.88;;;;;;;8.91;58.45;100314.97;5048278;28;20478;-64
2021/03/26 06:46:31;;;;;;;16.48;11.55;;;;;;;8.94;58.55;100311.69;5040540;28;20109;-65
2021/03/26 06:49:14;;;;;;;15.77;11.35;;;;;;;9.00;58.52;100314.44;5044299;28;20106;-65
2021/03/26 06:52:18;;;;;;;18.55;11.63;;;;;;;9.01;58.81;100326.97;5053134;28;20040;-66
2021/03/26 06:55:15;;;;;;;20.80;11.90;;;;;;;9.05;58.31;100325.31;4944028;29;20055;-66
2021/03/26 06:58:05;;;;;;;17.60;12.07;;;;;;;9.07;58.63;100323.16;4933331;29;20027;-66
2021/03/26 07:01:07;;;;;;;24.92;17.23;;;;;;;9.08;58.13;100320.16;5010877;28;20098;-65
2021/03/26 07:04:10;;;;;;;18.50;12.20;;;;;;;9.10;58.17;100318.00;5028126;28;20111;-67
2021/03/26 07:06:51;;;;;;;18.70;12.43;;;;;;;9.09;58.56;100318.28;5042695;28;20053;-64
2021/03/26 07:09:44;;;;;;;15.88;12.55;;;;;;;9.14;58.48;100320.97;5047746;28;20100;-69
2021/03/26 07:12:33;;;;;;;16.80;12.48;;;;;;;9.19;58.46;100325.63;5027284;28;20078;-66
2021/03/26 07:15:01;;;;;;;16.33;11.73;;;;;;;9.20;58.48;100319.09;5019460;28;20049;-67
2021/03/26 07:17:51;;;;;;;20.40;12.38;;;;;;;9.27;58.38;100308.75;5046561;28;20032;-66
2021/03/26 07:20:16;;;;;;;18.52;11.70;;;;;;;9.31;58.20;100317.19;5024644;28;20025;-68
2021/03/26 07:23:12;;;;;;;20.05;12.52;;;;;;;9.38;58.36;100312.28;5040294;28;20025;-67
2021/03/26 07:25:50;;;;;;;20.13;14.15;;;;;;;9.47;58.08;100320.69;5036355;28;20056;-66
2021/03/26 07:28:36;;;;;;;17.00;12.23;;;;;;;9.55;58.35;100317.44;5045862;28;20024;-68
2021/03/26 07:31:33;;;;;;;20.00;12.32;;;;;;;9.60;58.17;100320.16;5034727;28;20487;-67
2021/03/26 07:34:27;;;;;;;16.92;11.90;;;;;;;9.64;58.23;100320.44;5045014;28;20025;-67
2021/03/26 07:37:09;;;;;;;16.75;11.82;;;;;;;9.70;58.11;100322.06;5048847;28;20029;-65
2021/03/26 07:40:18;;;;;;;15.93;11.25;;;;;;;9.66;58.44;100294.56;5035202;28;20036;-66
2021/03/26 07:43:08;;;;;;;17.42;11.85;;;;;;;9.91;58.27;100325.56;5034809;28;20090;-65
2021/03/26 07:46:12;;;;;;;16.08;11.55;;;;;;;9.99;57.91;100321.47;5052411;28;20025;-66
2021/03/26 07:49:14;;;;;;;14.77;11.02;;;;;;;10.09;58.10;100318.69;5004539;28;20518;-66
2021/03/26 07:51:55;;;;;;;17.45;11.57;;;;;;;10.14;57.98;100307.78;5017211;28;20371;-64
2021/03/26 07:54:38;;;;;;;16.95;11.20;;;;;;;10.31;58.31;100317.53;5005952;28;20505;-68
2021/03/26 07:57:40;;;;;;;14.43;11.13;;;;;;;10.41;58.08;100316.72;5014624;28;20105;-67
2021/03/26 08:00:45;;;;;;;18.05;10.40;;;;;;;10.49;57.83;100316.97;5005704;28;20053;-66
2021/03/26 08:03:37;;;;;;;17.42;11.38;;;;;;;10.56;57.50;100324.81;4981701;28;20069;-67
2021/03/26 08:06:11;;;;;;;15.15;11.40;;;;;;;10.60;57.72;100311.44;5016988;28;20033;-67
2021/03/26 08:08:55;;;;;;;16.20;10.73;;;;;;;10.70;57.63;100319.56;5016890;28;20030;-67
2021/03/26 08:11:52;;;;;;;17.90;10.40;;;;;;;10.78;57.50;100327.16;5016820;28;20040;-66
2021/03/26 08:14:35;;;;;;;17.13;11.00;;;;;;;10.87;57.30;100327.38;5018662;28;20069;-67
2021/03/26 08:17:21;;;;;;;20.13;11.35;;;;;;;10.99;57.28;100329.78;5016469;28;20025;-67
2021/03/26 08:20:29;;;;;;;15.00;10.52;;;;;;;11.14;57.62;100326.09;5016981;28;20105;-68
2021/03/26 08:23:25;;;;;;;16.88;10.07;;;;;;;11.24;57.25;100331.50;4936113;29;20516;-67
2021/03/26 08:26:13;;;;;;;14.95;11.35;;;;;;;11.34;57.07;100327.84;4935247;29;20036;-67
2021/03/26 08:29:00;;;;;;;16.88;10.65;;;;;;;11.43;57.18;100336.28;4998629;28;20112;-66
2021/03/26 08:31:34;;;;;;;19.27;9.73;;;;;;;11.49;57.33;100329.66;5004005;28;20026;-66
2021/03/26 08:34:18;;;;;;;13.80;10.35;;;;;;;11.60;57.42;100335.84;5014355;28;20037;-66
2021/03/26 08:37:22;;;;;;;16.33;10.70;;;;;;;11.68;57.25;100327.03;5016990;28;20053;-66
2021/03/26 08:39:52;;;;;;;12.35;10.13;;;;;;;11.74;57.39;100328.59;5016862;28;20072;-68
2021/03/26 08:42:33;;;;;;;17.17;9.77;;;;;;;11.85;57.12;100323.88;5015791;28;20022;-66
2021/03/26 08:45:07;;;;;;;13.23;9.60;;;;;;;11.95;57.12;100328.41;5011899;28;20025;-65
2021/03/26 08:47:49;;;;;;;13.63;9.40;;;;;;;11.95;57.24;100312.00;4999524;28;20057;-68
2021/03/26 08:51:06;;;;;;;13.93;9.55;;;;;;;12.16;57.11;100320.00;5014574;28;20451;-65
2021/03/26 08:53:50;;;;;;;14.93;9.07;;;;;;;12.21;57.18;100323.50;4982977;28;20038;-68
2021/03/26 08:56:46;;;;;;;16.55;9.90;;;;;;;12.38;56.76;100322.19;5011261;28;20025;-66
2021/03/26 08:59:35;;;;;;;16.23;9.70;;;;;;;12.45;56.78;100322.66;5016546;28;20105;-66
2021/03/26 09:02:37;;;;;;;16.55;9.27;;;;;;;12.57;56.47;100325.78;5013462;28;20446;-67
2021/03/26 09:05:40;;;;;;;16.17;8.82;;;;;;;12.66;56.41;100331.41;5009172;28;20021;-67
2021/03/26 09:08:34;;;;;;;14.73;9.13;;;;;;;12.74;56.42;100332.69;5016237;28;20117;-66
2021/03/26 09:11:32;;;;;;;13.00;8.13;;;;;;;12.84;56.20;100331.72;5019036;28;20026;-66
2021/03/26 09:14:07;;;;;;;9.57;6.50;;;;;;;12.86;56.21;100333.06;5016053;28;20029;-66
2021/03/26 09:16:39;;;;;;;10.57;6.22;;;;;;;12.96;56.04;100331.28;5015414;28;20034;-68
2021/03/26 09:19:15;;;;;;;15.23;6.30;;;;;;;13.05;55.65;100330.34;5015984;28;20557;-65
2021/03/26 09:21:47;;;;;;;13.57;6.30;;;;;;;13.13;55.49;100331.56;5016401;28;20018;-66
2021/03/26 09:24:45;;;;;;;9.10;6.57;;;;;;;13.21;55.12;100327.34;5016404;28;20029;-66
2021/03/26 09:27:30;;;;;;;11.20;6.10;;;;;;;13.25;54.76;100322.91;5008555;28;20041;-67
2021/03/26 09:30:01;;;;;;;10.50;6.35;;;;;;;13.28;54.56;100332.44;5005160;28;20093;-66
2021/03/26 09:32:31;;;;;;;11.25;6.50;;;;;;;13.32;54.74;100325.25;5017250;28;20025;-66
2021/03/26 09:35:04;;;;;;;10.88;6.03;;;;;;;13.36;54.74;100313.41;5015847;28;20030;-66
2021/03/26 09:37:46;;;;;;;7.85;6.15;;;;;;;13.45;54.39;100324.50;5013370;28;20029;-66
2021/03/26 09:40:33;;;;;;;9.95;5.90;;;;;;;13.51;54.75;100320.56;5016051;28;20022;-66
2021/03/26 09:43:23;;;;;;;8.57;6.18;;;;;;;13.57;54.53;100307.59;5015158;28;20069;-65
2021/03/26 09:46:02;;;;;;;9.75;5.47;;;;;;;13.65;54.74;100301.44;5015636;28;20029;-67
2021/03/26 09:48:55;;;;;;;7.68;5.38;;;;;;;13.77;54.53;100298.19;5040238;28;20054;-66
2021/03/26 09:51:45;;;;;;;10.02;5.70;;;;;;;13.85;54.51;100296.69;5047953;28;20029;-66
2021/03/26 09:54:32;;;;;;;9.75;5.88;;;;;;;13.91;54.64;100295.47;5025847;28;20036;-67
2021/03/26 09:57:22;;;;;;;12.00;5.55;;;;;;;14.01;54.45;100291.72;5039389;28;20021;-65
2021/03/26 10:00:08;;;;;;;10.20;5.50;;;;;;;14.15;54.21;100289.81;5049296;28;20032;-67
2021/03/26 10:02:39;;;;;;;10.60;5.10;;;;;;;14.24;54.34;100284.41;5059402;28;20474;-68
2021/03/26 10:05:28;;;;;;;12.85;5.65;;;;;;;14.40;53.75;100298.63;5048451;28;20035;-67
2021/03/26 10:08:20;;;;;;;10.32;5.70;;;;;;;14.52;53.65;100289.88;5059160;28;20025;-66
2021/03/26 10:10:47;;;;;;;10.00;5.90;;;;;;;14.75;53.43;100289.94;5049350;28;20018;-66
2021/03/26 10:13:21;;;;;;;9.13;6.03;;;;;;;14.87;53.06;100265.53;5024277;28;20030;-66
2021/03/26 10:16:02;;;;;;;10.53;5.80;;;;;;;15.06;52.84;100270.81;5042157;28;20037;-66
2021/03/26 10:18:51;;;;;;;9.73;5.70;;;;;;;15.24;52.85;100262.72;5056155;28;20051;-66
2021/03/26 10:21:23;;;;;;;8.68;5.95;;;;;;;15.36;52.67;100262.13;5029184;28;20013;-68
2021/03/26 10:24:20;;;;;;;8.00;5.40;;;;;;;15.52;52.20;100254.28;5031112;28;20458;-67
2021/03/26 10:27:06;;;;;;;12.90;5.25;;;;;;;15.58;51.77;100250.28;5037832;28;20113;-67
2021/03/26 10:29:47;;;;;;;9.75;5.15;;;;;;;15.67;51.40;100247.56;5052879;28;20029;-68
2021/03/26 10:32:22;;;;;;;9.10;5.18;;;;;;;15.71;51.04;100254.88;5045341;28;20079;-66
2021/03/26 10:34:49;;;;;;;6.60;4.95;;;;;;;15.64;51.13;100238.03;5043952;28;20022;-68
2021/03/26 10:37:33;;;;;;;8.80;4.75;;;;;;;15.78;50.30;100256.34;5054202;28;20041;-66
2021/03/26 10:40:23;;;;;;;8.55;4.78;;;;;;;15.76;50.61;100247.59;5056881;28;20418;-66
2021/03/26 10:43:02;;;;;;;8.63;5.00;;;;;;;15.72;50.31;100252.91;5038811;28;20159;-67
2021/03/26 10:45:46;;;;;;;9.60;5.10;;;;;;;15.72;50.22;100251.00;5021231;28;20025;-66
2021/03/26 10:48:49;;;;;;;9.30;4.68;;;;;;;15.74;50.40;100250.69;5043346;28;20049;-66
2021/03/26 10:51:37;;;;;;;6.40;4.70;;;;;;;15.77;50.62;100241.81;5020570;28;20522;-65
2021/03/26 10:54:02;;;;;;;7.85;4.70;;;;;;;15.79;50.71;100239.53;5024711;28;20415;-69
2021/03/26 10:56:34;;;;;;;7.90;4.65;;;;;;;15.85;50.75;100232.81;5010624;28;20446;-68
2021/03/26 10:59:19;;;;;;;7.95;4.55;;;;;;;15.93;50.21;100222.16;5025374;28;20037;-66
2021/03/26 11:01:48;;;;;;;8.40;4.25;;;;;;;15.94;50.35;100224.56;5041003;28;20025;-65
2021/03/26 11:04:26;;;;;;;10.25;4.80;;;;;;;16.02;50.21;100234.00;5031332;28;20041;-66
2021/03/26 11:07:04;;;;;;;8.60;4.93;;;;;;;16.05;49.96;100231.41;5026229;28;20036;-66
2021/03/26 11:09:39;;;;;;;8.00;4.50;;;;;;;16.05;50.15;100214.91;5024758;28;20113;-66
2021/03/26 11:12:23;;;;;;;8.65;4.75;;;;;;;16.19;49.98;100225.78;5028512;28;20067;-66
2021/03/26 11:15:10;;;;;;;11.05;4.97;;;;;;;16.29;49.88;100223.84;5018119;28;20509;-66
2021/03/26 11:18:12;;;;;;;6.72;4.55;;;;;;;16.35;50.24;100212.38;5012967;28;20096;-67
2021/03/26 11:20:49;;;;;;;10.63;6.80;;;;;;;16.38;49.96;100218.34;5030821;28;20017;-67
2021/03/26 11:23:27;;;;;;;6.45;4.40;;;;;;;16.45;49.68;100204.94;5045648;28;20036;-66
2021/03/26 11:26:48;;;;;;;7.15;4.63;;;;;;;16.53;49.45;100199.41;5052947;28;20103;-66
2021/03/26 11:29:14;;;;;;;10.20;4.40;;;;;;;16.57;49.77;100196.03;4986464;28;20034;-66
2021/03/26 11:32:01;;;;;;;8.68;4.50;;;;;;;16.69;49.97;100185.19;5008983;28;20097;-66
2021/03/26 11:34:55;;;;;;;8.38;4.60;;;;;;;16.73;49.74;100191.66;5021756;28;20084;-66
2021/03/26 11:37:28;;;;;;;6.93;4.10;;;;;;;16.80;49.38;100194.72;5005590;28;20062;-67
2021/03/26 11:40:10;;;;;;;7.60;5.30;;;;;;;16.87;49.40;100196.16;5017733;28;20386;-66
2021/03/26 11:43:11;;;;;;;8.25;5.07;;;;;;;16.96;49.53;100188.72;5017882;28;20022;-66
2021/03/26 11:45:40;;;;;;;7.22;4.55;;;;;;;17.04;48.98;100176.09;4975232;28;20049;-66
2021/03/26 11:48:23;;;;;;;8.90;5.13;;;;;;;17.15;48.81;100178.16;5023225;28;20548;-66
2021/03/26 11:51:01;;;;;;;6.03;5.05;;;;;;;17.20;48.66;100173.59;5026216;28;20033;-67
2021/03/26 11:53:35;;;;;;;7.95;5.22;;;;;;;17.25;48.73;100176.19;5028842;28;20112;-66
2021/03/26 11:56:19;;;;;;;8.35;4.70;;;;;;;17.36;49.09;100177.44;5027741;28;20465;-68
2021/03/26 11:59:22;;;;;;;16.27;4.95;;;;;;;17.53;48.25;100186.78;5018259;28;20129;-66
2021/03/26 12:02:01;;;;;;;10.60;5.10;;;;;;;17.60;47.98;100181.56;5034337;28;20045;-68
2021/03/26 12:04:56;;;;;;;9.43;5.65;;;;;;;17.66;47.46;100174.72;5024904;28;20037;-65
2021/03/26 12:07:30;;;;;;;10.38;4.43;;;;;;;17.56;48.05;100158.56;5016132;28;20527;-67
2021/03/26 12:10:20;;;;;;;8.33;4.37;;;;;;;17.66;47.67;100165.63;5026330;28;20029;-65
2021/03/26 12:12:53;;;;;;;6.88;4.20;;;;;;;17.81;47.08;100180.81;5024451;28;20354;-67
2021/03/26 12:15:27;;;;;;;8.57;4.55;;;;;;;17.88;46.54;100172.81;5032892;28;20025;-67